Miami, Florida
Traffic Map
Current Weather Conditions
Miami, Florida
Few Clouds
Few Clouds
29°
Feels Like: 35°
Wind Chill: 29° Ceiling: Unl
Heat Index: 35° Visibility: 10mi
Dew Point: 26° Wind: 0mph
Humidity: 82% Direction: ° ()
Pressure: 30.06in Gusts: 0mph
Raw Report DataKMIA 291153Z 00000KT 10SM FEW020TCU FEW250 29/26 A3006 RMK AO2 SLP178 TCU NE-SE-S T02890256 10289 20278 53007
Traffic Incident Summary
Active as of:
Severity:
Category:
InformationThere was an issue retrieving the traffic information for this location. Please try a different location or try again shortly.
Advertisements
Track Severe Weather on mobile